sensor_id;sensor_type;location;lat;lon;timestamp;pressure;altitude;pressure_sealevel;temperature;humidity
74960;BME280;63518;49.572;1.106;2023-05-20T00:01:38;100336.97;;;8.24;85.95
74960;BME280;63518;49.572;1.106;2023-05-20T00:04:05;100325.16;;;8.24;84.43
74960;BME280;63518;49.572;1.106;2023-05-20T00:06:32;100330.06;;;8.22;84.62
74960;BME280;63518;49.572;1.106;2023-05-20T00:09:00;100315.19;;;8.18;85.30
74960;BME280;63518;49.572;1.106;2023-05-20T00:11:27;100326.41;;;8.16;85.78
74960;BME280;63518;49.572;1.106;2023-05-20T00:13:54;100320.66;;;8.18;84.96
74960;BME280;63518;49.572;1.106;2023-05-20T00:16:20;100312.72;;;7.99;86.20
74960;BME280;63518;49.572;1.106;2023-05-20T00:18:47;100314.53;;;8.11;86.52
74960;BME280;63518;49.572;1.106;2023-05-20T00:21:14;100317.34;;;8.16;85.72
74960;BME280;63518;49.572;1.106;2023-05-20T00:23:41;100294.59;;;7.98;87.15
74960;BME280;63518;49.572;1.106;2023-05-20T00:26:08;100310.13;;;8.10;87.83
74960;BME280;63518;49.572;1.106;2023-05-20T00:28:35;100309.38;;;7.97;87.25
74960;BME280;63518;49.572;1.106;2023-05-20T00:31:02;100294.75;;;7.92;86.50
74960;BME280;63518;49.572;1.106;2023-05-20T00:33:29;100315.84;;;8.25;88.19
74960;BME280;63518;49.572;1.106;2023-05-20T00:35:56;100293.75;;;7.81;87.89
74960;BME280;63518;49.572;1.106;2023-05-20T00:38:23;100288.16;;;8.10;88.04
74960;BME280;63518;49.572;1.106;2023-05-20T00:40:50;100291.75;;;7.93;88.53
74960;BME280;63518;49.572;1.106;2023-05-20T00:43:16;100297.97;;;8.06;86.86
74960;BME280;63518;49.572;1.106;2023-05-20T00:45:43;100286.41;;;8.04;88.11
74960;BME280;63518;49.572;1.106;2023-05-20T00:48:11;100286.97;;;8.06;88.59
74960;BME280;63518;49.572;1.106;2023-05-20T00:50:39;100297.22;;;8.10;88.15
74960;BME280;63518;49.572;1.106;2023-05-20T00:53:06;100290.16;;;8.14;89.28
74960;BME280;63518;49.572;1.106;2023-05-20T00:55:33;100280.91;;;8.04;89.02
74960;BME280;63518;49.572;1.106;2023-05-20T00:58:01;100286.97;;;8.06;89.50
74960;BME280;63518;49.572;1.106;2023-05-20T01:00:28;100280.34;;;8.01;88.59
74960;BME280;63518;49.572;1.106;2023-05-20T01:02:55;100286.41;;;8.04;89.03
74960;BME280;63518;49.572;1.106;2023-05-20T01:05:22;100272.91;;;8.19;88.55
74960;BME280;63518;49.572;1.106;2023-05-20T01:07:49;100276.69;;;7.96;90.78
74960;BME280;63518;49.572;1.106;2023-05-20T01:10:16;100270.63;;;7.94;90.42
74960;BME280;63518;49.572;1.106;2023-05-20T01:12:53;100263.69;;;7.53;91.08
74960;BME280;63518;49.572;1.106;2023-05-20T01:15:24;100257.25;;;7.81;90.60
74960;BME280;63518;49.572;1.106;2023-05-20T01:17:55;100263.91;;;7.85;90.80
74960;BME280;63518;49.572;1.106;2023-05-20T01:20:24;100266.81;;;7.95;90.10
74960;BME280;63518;49.572;1.106;2023-05-20T01:22:53;100274.13;;;7.89;89.81
74960;BME280;63518;49.572;1.106;2023-05-20T01:25:20;100268.50;;;7.79;90.80
74960;BME280;63518;49.572;1.106;2023-05-20T01:27:48;100260.09;;;7.86;91.13
74960;BME280;63518;49.572;1.106;2023-05-20T01:30:16;100255.34;;;7.98;89.83
74960;BME280;63518;49.572;1.106;2023-05-20T01:32:47;100267.81;;;7.89;90.79
74960;BME280;63518;49.572;1.106;2023-05-20T01:35:16;100262.78;;;8.02;89.32
74960;BME280;63518;49.572;1.106;2023-05-20T01:37:43;100264.84;;;8.12;87.69
74960;BME280;63518;49.572;1.106;2023-05-20T01:40:14;100267.97;;;7.99;89.97
74960;BME280;63518;49.572;1.106;2023-05-20T01:42:42;100262.63;;;8.09;88.22
74960;BME280;63518;49.572;1.106;2023-05-20T01:45:09;100250.84;;;7.92;89.87
74960;BME280;63518;49.572;1.106;2023-05-20T01:47:36;100261.56;;;7.93;89.66
74960;BME280;63518;49.572;1.106;2023-05-20T01:50:03;100257.75;;;7.94;90.26
74960;BME280;63518;49.572;1.106;2023-05-20T01:52:30;100252.84;;;7.80;89.99
74960;BME280;63518;49.572;1.106;2023-05-20T01:54:57;100243.72;;;7.74;91.04
74960;BME280;63518;49.572;1.106;2023-05-20T01:57:24;100244.31;;;7.76;91.73
74960;BME280;63518;49.572;1.106;2023-05-20T01:59:51;100234.91;;;7.72;92.86
74960;BME280;63518;49.572;1.106;2023-05-20T02:02:18;100243.41;;;7.70;91.69
74960;BME280;63518;49.572;1.106;2023-05-20T02:04:47;100242.88;;;7.90;91.41
74960;BME280;63518;49.572;1.106;2023-05-20T02:07:14;100254.34;;;7.87;91.25
74960;BME280;63518;49.572;1.106;2023-05-20T02:09:41;100252.69;;;7.86;91.15
74960;BME280;63518;49.572;1.106;2023-05-20T02:12:09;100242.72;;;7.80;90.93
74960;BME280;63518;49.572;1.106;2023-05-20T02:14:45;100253.84;;;7.90;91.15
74960;BME280;63518;49.572;1.106;2023-05-20T02:17:13;100237.22;;;7.80;91.29
74960;BME280;63518;49.572;1.106;2023-05-20T02:19:43;100250.53;;;7.71;91.50
74960;BME280;63518;49.572;1.106;2023-05-20T02:22:10;100240.63;;;7.87;91.64
74960;BME280;63518;49.572;1.106;2023-05-20T02:24:37;100231.34;;;7.71;92.99
74960;BME280;63518;49.572;1.106;2023-05-20T02:27:04;100220.31;;;7.88;90.86
74960;BME280;63518;49.572;1.106;2023-05-20T02:29:31;100228.41;;;7.78;91.15
74960;BME280;63518;49.572;1.106;2023-05-20T02:31:58;100232.72;;;7.74;92.15
74960;BME280;63518;49.572;1.106;2023-05-20T02:34:26;100226.97;;;7.54;91.82
74960;BME280;63518;49.572;1.106;2023-05-20T02:36:53;100226.63;;;7.67;92.98
74960;BME280;63518;49.572;1.106;2023-05-20T02:39:20;100222.94;;;7.78;92.12
74960;BME280;63518;49.572;1.106;2023-05-20T02:41:47;100221.53;;;7.76;92.01
74960;BME280;63518;49.572;1.106;2023-05-20T02:44:13;100207.03;;;7.80;92.50
74960;BME280;63518;49.572;1.106;2023-05-20T02:46:40;100219.22;;;7.89;92.79
74960;BME280;63518;49.572;1.106;2023-05-20T02:49:07;100218.63;;;7.82;91.28
74960;BME280;63518;49.572;1.106;2023-05-20T02:51:35;100229.81;;;7.81;92.30
74960;BME280;63518;49.572;1.106;2023-05-20T02:54:01;100220.09;;;7.73;91.75
74960;BME280;63518;49.572;1.106;2023-05-20T02:56:29;100222.63;;;7.75;92.25
74960;BME280;63518;49.572;1.106;2023-05-20T02:58:56;100204.75;;;7.55;92.72
74960;BME280;63518;49.572;1.106;2023-05-20T03:01:22;100218.97;;;7.52;93.56
74960;BME280;63518;49.572;1.106;2023-05-20T03:03:49;100221.44;;;7.70;93.54
74960;BME280;63518;49.572;1.106;2023-05-20T03:06:16;100214.13;;;7.76;93.14
74960;BME280;63518;49.572;1.106;2023-05-20T03:08:43;100204.72;;;7.72;93.29
74960;BME280;63518;49.572;1.106;2023-05-20T03:11:10;100219.63;;;7.76;92.58
74960;BME280;63518;49.572;1.106;2023-05-20T03:13:37;100213.88;;;7.78;93.14
74960;BME280;63518;49.572;1.106;2023-05-20T03:16:04;100215.44;;;7.73;92.90
74960;BME280;63518;49.572;1.106;2023-05-20T03:18:31;100213.34;;;7.81;92.12
74960;BME280;63518;49.572;1.106;2023-05-20T03:20:58;100214.13;;;7.76;91.86
74960;BME280;63518;49.572;1.106;2023-05-20T03:23:25;100204.91;;;7.65;91.76
74960;BME280;63518;49.572;1.106;2023-05-20T03:25:52;100208.69;;;7.81;91.47
74960;BME280;63518;49.572;1.106;2023-05-20T03:28:19;100207.16;;;7.68;92.08
74960;BME280;63518;49.572;1.106;2023-05-20T03:30:46;100206.91;;;7.70;92.39
74960;BME280;63518;49.572;1.106;2023-05-20T03:33:13;100201.50;;;7.75;92.83
74960;BME280;63518;49.572;1.106;2023-05-20T03:35:41;100205.19;;;7.86;91.88
74960;BME280;63518;49.572;1.106;2023-05-20T03:38:08;100191.03;;;7.55;91.71
74960;BME280;63518;49.572;1.106;2023-05-20T03:40:34;100199.97;;;7.84;93.21
74960;BME280;63518;49.572;1.106;2023-05-20T03:43:01;100198.84;;;7.63;91.64
74960;BME280;63518;49.572;1.106;2023-05-20T03:45:28;100201.66;;;7.68;91.77
74960;BME280;63518;49.572;1.106;2023-05-20T03:47:55;100191.53;;;7.69;92.90
74960;BME280;63518;49.572;1.106;2023-05-20T03:50:22;100176.06;;;7.63;92.34
74960;BME280;63518;49.572;1.106;2023-05-20T03:52:48;100190.53;;;7.75;92.36
74960;BME280;63518;49.572;1.106;2023-05-20T03:55:15;100166.84;;;7.69;93.49
74960;BME280;63518;49.572;1.106;2023-05-20T03:57:42;100182.06;;;7.60;93.56
74960;BME280;63518;49.572;1.106;2023-05-20T04:00:09;100178.00;;;7.45;93.09
74960;BME280;63518;49.572;1.106;2023-05-20T04:02:37;100184.25;;;7.80;93.67
74960;BME280;63518;49.572;1.106;2023-05-20T04:05:05;100185.47;;;7.67;92.88
74960;BME280;63518;49.572;1.106;2023-05-20T04:07:34;100181.47;;;7.58;93.21
74960;BME280;63518;49.572;1.106;2023-05-20T04:10:02;100184.13;;;7.69;93.55
74960;BME280;63518;49.572;1.106;2023-05-20T04:12:29;100164.78;;;7.81;93.76
74960;BME280;63518;49.572;1.106;2023-05-20T04:14:58;100173.19;;;7.91;92.89
74960;BME280;63518;49.572;1.106;2023-05-20T04:17:29;100174.06;;;7.75;94.00
74960;BME280;63518;49.572;1.106;2023-05-20T04:19:57;100169.88;;;7.72;92.99
74960;BME280;63518;49.572;1.106;2023-05-20T04:22:25;100167.16;;;7.94;93.56
74960;BME280;63518;49.572;1.106;2023-05-20T04:24:53;100168.19;;;7.88;92.44
74960;BME280;63518;49.572;1.106;2023-05-20T04:27:20;100180.50;;;7.86;93.69
74960;BME280;63518;49.572;1.106;2023-05-20T04:29:47;100183.81;;;7.88;93.72
74960;BME280;63518;49.572;1.106;2023-05-20T04:32:17;100192.47;;;7.80;93.89
74960;BME280;63518;49.572;1.106;2023-05-20T04:34:45;100191.31;;;7.92;92.41
74960;BME280;63518;49.572;1.106;2023-05-20T04:37:12;100185.25;;;7.90;93.25
74960;BME280;63518;49.572;1.106;2023-05-20T04:39:39;100191.50;;;8.08;93.22
74960;BME280;63518;49.572;1.106;2023-05-20T04:42:06;100191.69;;;8.23;92.42
74960;BME280;63518;49.572;1.106;2023-05-20T04:44:33;100181.59;;;8.07;92.11
74960;BME280;63518;49.572;1.106;2023-05-20T04:47:00;100200.69;;;8.18;93.65
74960;BME280;63518;49.572;1.106;2023-05-20T04:49:26;100183.13;;;8.19;93.24
74960;BME280;63518;49.572;1.106;2023-05-20T04:51:55;100190.88;;;8.22;92.96
74960;BME280;63518;49.572;1.106;2023-05-20T04:54:22;100187.53;;;8.20;91.59
74960;BME280;63518;49.572;1.106;2023-05-20T04:56:48;100180.00;;;8.33;92.82
74960;BME280;63518;49.572;1.106;2023-05-20T04:59:16;100185.28;;;8.39;91.94
74960;BME280;63518;49.572;1.106;2023-05-20T05:01:43;100173.56;;;8.22;92.19
74960;BME280;63518;49.572;1.106;2023-05-20T05:04:10;100178.72;;;8.18;93.66
74960;BME280;63518;49.572;1.106;2023-05-20T05:06:37;100174.88;;;8.41;93.56
74960;BME280;63518;49.572;1.106;2023-05-20T05:09:04;100179.06;;;8.22;92.67
74960;BME280;63518;49.572;1.106;2023-05-20T05:11:31;100163.19;;;8.29;94.01
74960;BME280;63518;49.572;1.106;2023-05-20T05:13:57;100171.50;;;8.34;93.48
74960;BME280;63518;49.572;1.106;2023-05-20T05:16:24;100160.31;;;8.41;93.94
74960;BME280;63518;49.572;1.106;2023-05-20T05:18:51;100170.00;;;8.48;93.36
74960;BME280;63518;49.572;1.106;2023-05-20T05:21:18;100159.84;;;8.76;93.25
74960;BME280;63518;49.572;1.106;2023-05-20T05:23:47;100165.03;;;8.45;93.43
74960;BME280;63518;49.572;1.106;2023-05-20T05:26:14;100155.72;;;8.73;93.57
74960;BME280;63518;49.572;1.106;2023-05-20T05:28:41;100159.34;;;8.79;93.69
74960;BME280;63518;49.572;1.106;2023-05-20T05:31:11;100165.50;;;8.64;94.30
74960;BME280;63518;49.572;1.106;2023-05-20T05:33:37;100176.28;;;8.71;93.04
74960;BME280;63518;49.572;1.106;2023-05-20T05:36:04;100173.72;;;8.86;94.06
74960;BME280;63518;49.572;1.106;2023-05-20T05:38:32;100180.53;;;8.83;93.44
74960;BME280;63518;49.572;1.106;2023-05-20T05:40:58;100184.53;;;8.98;93.05
74960;BME280;63518;49.572;1.106;2023-05-20T05:43:25;100175.84;;;9.11;93.98
74960;BME280;63518;49.572;1.106;2023-05-20T05:45:52;100166.56;;;8.85;94.31
74960;BME280;63518;49.572;1.106;2023-05-20T05:48:20;100160.53;;;8.88;94.06
74960;BME280;63518;49.572;1.106;2023-05-20T05:50:47;100160.59;;;8.93;94.05
74960;BME280;63518;49.572;1.106;2023-05-20T05:53:14;100162.97;;;9.17;92.40
74960;BME280;63518;49.572;1.106;2023-05-20T05:55:42;100174.50;;;9.13;93.97
74960;BME280;63518;49.572;1.106;2023-05-20T05:58:09;100160.78;;;9.19;93.91
74960;BME280;63518;49.572;1.106;2023-05-20T06:00:36;100167.28;;;9.45;93.33
74960;BME280;63518;49.572;1.106;2023-05-20T06:03:03;100152.94;;;9.37;93.85
74960;BME280;63518;49.572;1.106;2023-05-20T06:05:31;100162.50;;;9.30;91.52
74960;BME280;63518;49.572;1.106;2023-05-20T06:08:06;100164.94;;;9.63;93.15
74960;BME280;63518;49.572;1.106;2023-05-20T06:10:34;100162.94;;;9.49;91.92
74960;BME280;63518;49.572;1.106;2023-05-20T06:13:01;100152.53;;;9.61;91.49
74960;BME280;63518;49.572;1.106;2023-05-20T06:15:28;100146.28;;;9.76;92.68
74960;BME280;63518;49.572;1.106;2023-05-20T06:17:55;100157.53;;;9.64;93.09
74960;BME280;63518;49.572;1.106;2023-05-20T06:20:22;100165.59;;;9.86;92.21
74960;BME280;63518;49.572;1.106;2023-05-20T06:22:49;100146.56;;;9.79;91.97
74960;BME280;63518;49.572;1.106;2023-05-20T06:25:17;100157.34;;;9.81;90.66
74960;BME280;63518;49.572;1.106;2023-05-20T06:27:44;100155.22;;;9.98;91.74
74960;BME280;63518;49.572;1.106;2023-05-20T06:30:19;100150.78;;;9.92;91.85
74960;BME280;63518;49.572;1.106;2023-05-20T06:32:47;100150.81;;;9.97;90.19
74960;BME280;63518;49.572;1.106;2023-05-20T06:35:14;100139.78;;;9.97;90.52
74960;BME280;63518;49.572;1.106;2023-05-20T06:37:41;100152.56;;;10.23;90.94
74960;BME280;63518;49.572;1.106;2023-05-20T06:40:08;100152.38;;;10.45;89.73
74960;BME280;63518;49.572;1.106;2023-05-20T06:42:35;100142.19;;;10.56;89.24
74960;BME280;63518;49.572;1.106;2023-05-20T06:45:02;100137.22;;;10.58;89.34
74960;BME280;63518;49.572;1.106;2023-05-20T06:47:29;100151.84;;;10.54;89.10
74960;BME280;63518;49.572;1.106;2023-05-20T06:49:55;100145.81;;;10.67;88.31
74960;BME280;63518;49.572;1.106;2023-05-20T06:52:22;100137.28;;;10.84;87.93
74960;BME280;63518;49.572;1.106;2023-05-20T06:54:49;100152.72;;;10.90;87.38
74960;BME280;63518;49.572;1.106;2023-05-20T06:57:16;100149.94;;;10.90;87.83
74960;BME280;63518;49.572;1.106;2023-05-20T06:59:43;100138.38;;;10.98;88.12
74960;BME280;63518;49.572;1.106;2023-05-20T07:02:09;100135.63;;;11.08;87.96
74960;BME280;63518;49.572;1.106;2023-05-20T07:04:36;100142.25;;;11.07;89.05
74960;BME280;63518;49.572;1.106;2023-05-20T07:07:03;100130.94;;;10.78;86.77
74960;BME280;63518;49.572;1.106;2023-05-20T07:09:30;100120.47;;;11.16;86.80
74960;BME280;63518;49.572;1.106;2023-05-20T07:11:57;100132.31;;;11.16;85.95
74960;BME280;63518;49.572;1.106;2023-05-20T07:14:24;100137.84;;;11.16;86.06
74960;BME280;63518;49.572;1.106;2023-05-20T07:16:51;100125.41;;;11.39;85.74
74960;BME280;63518;49.572;1.106;2023-05-20T07:19:17;100132.25;;;11.57;85.98
74960;BME280;63518;49.572;1.106;2023-05-20T07:21:45;100130.31;;;11.62;85.49
74960;BME280;63518;49.572;1.106;2023-05-20T07:24:11;100131.16;;;11.43;84.29
74960;BME280;63518;49.572;1.106;2023-05-20T07:26:38;100140.25;;;11.58;84.59
74960;BME280;63518;49.572;1.106;2023-05-20T07:29:09;100131.72;;;11.70;83.61
74960;BME280;63518;49.572;1.106;2023-05-20T07:31:48;100126.25;;;12.19;83.95
74960;BME280;63518;49.572;1.106;2023-05-20T07:34:16;100127.59;;;12.27;81.80
74960;BME280;63518;49.572;1.106;2023-05-20T07:36:43;100117.97;;;12.14;82.48
74960;BME280;63518;49.572;1.106;2023-05-20T07:39:16;100122.09;;;12.22;83.17
74960;BME280;63518;49.572;1.106;2023-05-20T07:41:46;100123.66;;;12.38;82.54
74960;BME280;63518;49.572;1.106;2023-05-20T07:44:15;100129.38;;;12.52;80.61
74960;BME280;63518;49.572;1.106;2023-05-20T07:46:45;100132.38;;;12.95;81.17
74960;BME280;63518;49.572;1.106;2023-05-20T07:49:12;100118.19;;;12.72;80.65
74960;BME280;63518;49.572;1.106;2023-05-20T07:51:47;100114.72;;;12.91;80.35
74960;BME280;63518;49.572;1.106;2023-05-20T07:54:14;100108.78;;;12.73;80.19
74960;BME280;63518;49.572;1.106;2023-05-20T07:56:41;100112.66;;;13.12;78.00
74960;BME280;63518;49.572;1.106;2023-05-20T07:59:09;100096.41;;;12.61;79.29
74960;BME280;63518;49.572;1.106;2023-05-20T08:01:36;100105.84;;;12.99;79.80
74960;BME280;63518;49.572;1.106;2023-05-20T08:04:08;100102.59;;;13.21;78.20
74960;BME280;63518;49.572;1.106;2023-05-20T08:06:43;100111.97;;;13.78;78.09
74960;BME280;63518;49.572;1.106;2023-05-20T08:09:14;100104.59;;;13.15;77.25
74960;BME280;63518;49.572;1.106;2023-05-20T08:11:42;100106.72;;;13.52;77.53
74960;BME280;63518;49.572;1.106;2023-05-20T08:14:12;100103.31;;;13.32;77.00
74960;BME280;63518;49.572;1.106;2023-05-20T08:16:41;100111.78;;;13.69;75.81
74960;BME280;63518;49.572;1.106;2023-05-20T08:19:08;100108.75;;;13.90;75.82
74960;BME280;63518;49.572;1.106;2023-05-20T08:21:36;100112.66;;;14.12;74.85
74960;BME280;63518;49.572;1.106;2023-05-20T08:24:08;100106.03;;;14.08;73.85
74960;BME280;63518;49.572;1.106;2023-05-20T08:26:38;100106.84;;;14.33;74.57
74960;BME280;63518;49.572;1.106;2023-05-20T08:29:08;100101.47;;;13.99;74.18
74960;BME280;63518;49.572;1.106;2023-05-20T08:31:37;100088.00;;;13.87;74.17
74960;BME280;63518;49.572;1.106;2023-05-20T08:34:04;100096.56;;;14.52;73.97
74960;BME280;63518;49.572;1.106;2023-05-20T08:36:31;100081.28;;;15.06;73.70
74960;BME280;63518;49.572;1.106;2023-05-20T08:38:59;100092.66;;;14.53;71.52
74960;BME280;63518;49.572;1.106;2023-05-20T08:41:27;100090.56;;;14.45;72.23
74960;BME280;63518;49.572;1.106;2023-05-20T08:43:56;100090.06;;;14.43;71.74
74960;BME280;63518;49.572;1.106;2023-05-20T08:46:25;100090.13;;;14.57;69.80
74960;BME280;63518;49.572;1.106;2023-05-20T08:48:53;100093.81;;;15.04;70.15
74960;BME280;63518;49.572;1.106;2023-05-20T08:51:25;100100.38;;;14.94;71.24
74960;BME280;63518;49.572;1.106;2023-05-20T08:53:53;100095.09;;;15.58;69.53
74960;BME280;63518;49.572;1.106;2023-05-20T08:56:25;100080.47;;;16.21;66.30
74960;BME280;63518;49.572;1.106;2023-05-20T08:59:03;100090.84;;;15.14;68.49
74960;BME280;63518;49.572;1.106;2023-05-20T09:01:32;100096.88;;;15.21;68.62
74960;BME280;63518;49.572;1.106;2023-05-20T09:04:01;100102.78;;;15.33;68.21
74960;BME280;63518;49.572;1.106;2023-05-20T09:06:28;100091.66;;;16.16;68.04
74960;BME280;63518;49.572;1.106;2023-05-20T09:08:56;100084.69;;;15.63;66.25
74960;BME280;63518;49.572;1.106;2023-05-20T09:11:31;100075.53;;;16.04;67.77
74960;BME280;63518;49.572;1.106;2023-05-20T09:13:59;100081.72;;;15.73;66.20
74960;BME280;63518;49.572;1.106;2023-05-20T09:16:41;100097.22;;;16.02;66.20
74960;BME280;63518;49.572;1.106;2023-05-20T09:19:11;100073.97;;;15.70;67.07
74960;BME280;63518;49.572;1.106;2023-05-20T09:21:40;100084.88;;;16.35;66.19
74960;BME280;63518;49.572;1.106;2023-05-20T09:24:25;100078.84;;;16.42;65.36
74960;BME280;63518;49.572;1.106;2023-05-20T09:26:52;100084.06;;;16.21;65.56
74960;BME280;63518;49.572;1.106;2023-05-20T09:29:32;100076.84;;;15.93;64.53
74960;BME280;63518;49.572;1.106;2023-05-20T09:32:01;100075.25;;;16.42;64.95
74960;BME280;63518;49.572;1.106;2023-05-20T09:34:28;100079.47;;;16.53;64.04
74960;BME280;63518;49.572;1.106;2023-05-20T09:36:58;100080.88;;;15.87;63.28
74960;BME280;63518;49.572;1.106;2023-05-20T09:39:29;100063.75;;;16.57;64.05
74960;BME280;63518;49.572;1.106;2023-05-20T09:42:04;100074.91;;;16.57;64.10
74960;BME280;63518;49.572;1.106;2023-05-20T09:44:32;100071.94;;;16.76;62.68
74960;BME280;63518;49.572;1.106;2023-05-20T09:47:00;100069.31;;;16.57;63.55
74960;BME280;63518;49.572;1.106;2023-05-20T09:49:29;100062.41;;;16.68;63.38
74960;BME280;63518;49.572;1.106;2023-05-20T09:51:58;100067.09;;;17.74;61.96
74960;BME280;63518;49.572;1.106;2023-05-20T09:54:28;100071.69;;;17.31;60.83
74960;BME280;63518;49.572;1.106;2023-05-20T09:56:58;100062.28;;;17.58;62.09
74960;BME280;63518;49.572;1.106;2023-05-20T09:59:28;100059.50;;;17.58;60.96
74960;BME280;63518;49.572;1.106;2023-05-20T10:01:57;100059.56;;;17.13;60.48
74960;BME280;63518;49.572;1.106;2023-05-20T10:04:26;100046.78;;;17.74;60.79
74960;BME280;63518;49.572;1.106;2023-05-20T10:09:48;100040.41;;;17.82;61.83
74960;BME280;63518;49.572;1.106;2023-05-20T10:20:23;100038.72;;;17.02;59.24
74960;BME280;63518;49.572;1.106;2023-05-20T10:22:59;100033.53;;;17.40;59.96
74960;BME280;63518;49.572;1.106;2023-05-20T10:25:29;100026.16;;;17.92;60.44
74960;BME280;63518;49.572;1.106;2023-05-20T10:28:07;100028.00;;;17.49;58.46
74960;BME280;63518;49.572;1.106;2023-05-20T10:30:34;100025.28;;;17.26;57.83
74960;BME280;63518;49.572;1.106;2023-05-20T10:33:04;100018.69;;;18.36;57.48
74960;BME280;63518;49.572;1.106;2023-05-20T10:35:33;100014.69;;;18.02;56.62
74960;BME280;63518;49.572;1.106;2023-05-20T10:38:10;100014.31;;;17.78;56.93
74960;BME280;63518;49.572;1.106;2023-05-20T10:40:41;100021.63;;;18.31;58.05
74960;BME280;63518;49.572;1.106;2023-05-20T10:43:15;100021.31;;;17.58;56.61
74960;BME280;63518;49.572;1.106;2023-05-20T10:45:51;100015.53;;;18.98;54.77
74960;BME280;63518;49.572;1.106;2023-05-20T10:48:29;100014.69;;;18.02;55.46
74960;BME280;63518;49.572;1.106;2023-05-20T10:50:59;100019.16;;;18.55;53.60
74960;BME280;63518;49.572;1.106;2023-05-20T10:53:39;100008.97;;;17.51;54.58
74960;BME280;63518;49.572;1.106;2023-05-20T10:56:16;100001.09;;;18.70;53.52
74960;BME280;63518;49.572;1.106;2023-05-20T10:58:44;100004.75;;;18.36;54.55
74960;BME280;63518;49.572;1.106;2023-05-20T11:01:11;100005.84;;;18.70;53.81
74960;BME280;63518;49.572;1.106;2023-05-20T11:03:40;100008.13;;;19.02;55.78
74960;BME280;63518;49.572;1.106;2023-05-20T11:06:14;100018.19;;;18.51;57.17
74960;BME280;63518;49.572;1.106;2023-05-20T11:08:45;100013.91;;;19.74;51.17
74960;BME280;63518;49.572;1.106;2023-05-20T11:11:12;100015.19;;;17.96;54.53
74960;BME280;63518;49.572;1.106;2023-05-20T11:13:40;100007.69;;;18.22;50.83
74960;BME280;63518;49.572;1.106;2023-05-20T11:16:07;99987.31;;;18.30;51.64
74960;BME280;63518;49.572;1.106;2023-05-20T11:18:35;100007.28;;;19.49;49.59
74960;BME280;63518;49.572;1.106;2023-05-20T11:21:02;100003.84;;;19.43;54.26
74960;BME280;63518;49.572;1.106;2023-05-20T11:23:29;100002.38;;;18.90;55.50
74960;BME280;63518;49.572;1.106;2023-05-20T11:25:56;100001.16;;;21.10;51.95
74960;BME280;63518;49.572;1.106;2023-05-20T11:28:24;100003.38;;;18.77;57.96
74960;BME280;63518;49.572;1.106;2023-05-20T11:30:51;100007.19;;;18.38;60.86
74960;BME280;63518;49.572;1.106;2023-05-20T11:33:19;100004.72;;;18.10;60.48
74960;BME280;63518;49.572;1.106;2023-05-20T11:35:49;99998.16;;;18.32;59.07
74960;BME280;63518;49.572;1.106;2023-05-20T11:38:17;99985.16;;;18.71;57.25
74960;BME280;63518;49.572;1.106;2023-05-20T11:40:53;99990.88;;;19.00;62.55
74960;BME280;63518;49.572;1.106;2023-05-20T11:43:22;99999.22;;;19.09;61.85
74960;BME280;63518;49.572;1.106;2023-05-20T11:45:54;99983.78;;;20.09;58.78
74960;BME280;63518;49.572;1.106;2023-05-20T11:48:22;100005.22;;;19.66;58.94
74960;BME280;63518;49.572;1.106;2023-05-20T11:50:49;99987.03;;;19.90;57.92
74960;BME280;63518;49.572;1.106;2023-05-20T11:53:16;99994.16;;;19.02;61.19
74960;BME280;63518;49.572;1.106;2023-05-20T11:55:58;99981.53;;;18.96;62.42
74960;BME280;63518;49.572;1.106;2023-05-20T11:58:29;99986.28;;;18.96;61.96
74960;BME280;63518;49.572;1.106;2023-05-20T12:00:57;99981.88;;;20.01;56.16
74960;BME280;63518;49.572;1.106;2023-05-20T12:03:44;99984.94;;;19.49;54.13
74960;BME280;63518;49.572;1.106;2023-05-20T12:06:11;99972.88;;;19.19;56.63
74960;BME280;63518;49.572;1.106;2023-05-20T12:08:39;99977.56;;;20.24;57.43
74960;BME280;63518;49.572;1.106;2023-05-20T12:11:06;99973.22;;;21.01;50.60
74960;BME280;63518;49.572;1.106;2023-05-20T12:13:32;99969.34;;;18.92;59.22
74960;BME280;63518;49.572;1.106;2023-05-20T12:16:01;99974.00;;;19.94;59.26
74960;BME280;63518;49.572;1.106;2023-05-20T12:18:28;99969.19;;;21.48;54.72
74960;BME280;63518;49.572;1.106;2023-05-20T12:20:55;99982.06;;;21.37;53.76
74960;BME280;63518;49.572;1.106;2023-05-20T12:23:21;99970.47;;;21.26;50.85
74960;BME280;63518;49.572;1.106;2023-05-20T12:25:48;99969.03;;;21.32;52.04
74960;BME280;63518;49.572;1.106;2023-05-20T12:28:15;99968.75;;;21.00;52.82
74960;BME280;63518;49.572;1.106;2023-05-20T12:30:43;99950.06;;;19.17;59.84
74960;BME280;63518;49.572;1.106;2023-05-20T12:33:10;99949.22;;;18.00;60.37
74960;BME280;63518;49.572;1.106;2023-05-20T12:35:41;99955.91;;;16.85;63.88
74960;BME280;63518;49.572;1.106;2023-05-20T12:38:08;99961.19;;;16.95;64.73
74960;BME280;63518;49.572;1.106;2023-05-20T12:40:36;99970.69;;;18.77;60.78
74960;BME280;63518;49.572;1.106;2023-05-20T12:43:04;99957.22;;;18.97;58.90
74960;BME280;63518;49.572;1.106;2023-05-20T12:45:31;99947.69;;;19.36;57.04
74960;BME280;63518;49.572;1.106;2023-05-20T12:47:58;99948.25;;;18.48;56.18
74960;BME280;63518;49.572;1.106;2023-05-20T12:50:26;99949.41;;;20.62;52.45
74960;BME280;63518;49.572;1.106;2023-05-20T12:52:53;99947.03;;;19.89;55.38
74960;BME280;63518;49.572;1.106;2023-05-20T12:55:20;99941.22;;;19.06;58.32
74960;BME280;63518;49.572;1.106;2023-05-20T12:57:46;99934.19;;;18.10;61.04
74960;BME280;63518;49.572;1.106;2023-05-20T13:00:14;99929.31;;;17.10;62.79
74960;BME280;63518;49.572;1.106;2023-05-20T13:02:41;99946.75;;;17.72;61.05
74960;BME280;63518;49.572;1.106;2023-05-20T13:05:09;99947.41;;;18.65;60.21
74960;BME280;63518;49.572;1.106;2023-05-20T13:07:37;99948.81;;;19.05;58.82
74960;BME280;63518;49.572;1.106;2023-05-20T13:10:05;99933.03;;;18.92;60.76
74960;BME280;63518;49.572;1.106;2023-05-20T13:12:33;99945.38;;;18.82;58.89
74960;BME280;63518;49.572;1.106;2023-05-20T13:15:06;99934.38;;;16.99;62.90